Wetterstation Vordersexau
Wetterdaten: Woche 01.02.16 - 07.02.16 (KW5)
Datum Zeit Temp. A. Feuchte A. Luftdruck Regen Wind Richtung Taupunkt Windchill Windben
01.02.2016 00:00 12,6 C 87 % 1016,6 hPa 0,0 l/m 25,3 km/h W 10,5 C 5,3 C 14,0 km/h
01.02.2016 01:00 12,9 C 86 % 1017,6 hPa 0,0 l/m 23,3 km/h W 10,6 C 6,2 C 13,0 km/h
01.02.2016 02:00 12,9 C 86 % 1018,2 hPa 0,0 l/m 32,4 km/h W 10,6 C 4,3 C 18,0 km/h
01.02.2016 03:00 12,9 C 85 % 1019,0 hPa 0,0 l/m 28,5 km/h W-SW 10,4 C 5,0 C 15,8 km/h
01.02.2016 04:00 12,7 C 85 % 1019,7 hPa 0,0 l/m 24,0 km/h W-NW 10,2 C 5,7 C 13,3 km/h
01.02.2016 05:00 11,7 C 87 % 1020,4 hPa 0,0 l/m 23,3 km/h W-SW 9,6 C 4,6 C 13,0 km/h
01.02.2016 06:00 12,1 C 87 % 1020,9 hPa 0,0 l/m 25,9 km/h W-SW 10,0 C 4,5 C 14,4 km/h
01.02.2016 07:00 12,4 C 85 % 1021,1 hPa 0,0 l/m 31,1 km/h SW 9,9 C 3,8 C 17,3 km/h
01.02.2016 08:00 12,5 C 83 % 1021,9 hPa 0,0 l/m 15,6 km/h W-SW 9,7 C 7,9 C 8,6 km/h
01.02.2016 09:00 12,9 C 81 % 1022,6 hPa 0,0 l/m 43,4 km/h W-SW 9,7 C 2,8 C 24,1 km/h
01.02.2016 10:00 15,8 C 71 % 1023,2 hPa 0,0 l/m 33,0 km/h W 10,6 C 8,4 C 18,4 km/h
01.02.2016 11:00 14,3 C 74 % 1024,3 hPa 0,0 l/m 24,6 km/h S-SW 9,7 C 7,7 C 13,7 km/h
01.02.2016 12:00 13,0 C 72 % 1024,4 hPa 0,0 l/m 40,8 km/h W 8,1 C 3,2 C 22,7 km/h
01.02.2016 13:00 12,1 C 71 % 1024,8 hPa 0,0 l/m 18,8 km/h SW 7,0 C 6,4 C 10,4 km/h
01.02.2016 14:00 12,5 C 71 % 1024,3 hPa 0,0 l/m 25,9 km/h W 7,4 C 5,0 C 14,4 km/h
01.02.2016 15:00 11,9 C 73 % 1024,2 hPa 0,0 l/m 25,9 km/h S-SW 7,2 C 4,2 C 14,4 km/h
01.02.2016 16:00 11,5 C 76 % 1024,1 hPa 0,0 l/m 25,3 km/h W-SW 7,4 C 3,8 C 14,0 km/h
01.02.2016 17:00 11,1 C 76 % 1024,6 hPa 0,0 l/m 27,9 km/h W-SW 7,0 C 2,6 C 15,5 km/h
01.02.2016 18:00 10,9 C 71 % 1024,8 hPa 0,0 l/m 21,4 km/h W 5,9 C 4,0 C 11,9 km/h
01.02.2016 19:00 10,6 C 73 % 1025,2 hPa 0,0 l/m 35,6 km/h W-SW 6,0 C 0,5 C 19,8 km/h
01.02.2016 20:00 10,3 C 74 % 1024,8 hPa 0,0 l/m 14,9 km/h W 5,9 C 5,5 C 8,3 km/h
01.02.2016 21:00 10,3 C 75 % 1025,0 hPa 0,0 l/m 14,9 km/h W-NW 6,1 C 5,5 C 8,3 km/h
01.02.2016 22:00 10,4 C 75 % 1024,8 hPa 0,0 l/m 25,3 km/h W 6,2 C 2,3 C 14,0 km/h
01.02.2016 23:00 10,4 C 76 % 1024,8 hPa 0,0 l/m 28,5 km/h SW 6,4 C 1,5 C 15,8 km/h
02.02.2016 00:00 10,4 C 77 % 1024,7 hPa 0,0 l/m 23,3 km/h SW 6,5 C 2,8 C 13,0 km/h
02.02.2016 01:00 10,4 C 77 % 1024,0 hPa 0,0 l/m 22,7 km/h W-SW 6,5 C 3,0 C 12,6 km/h
02.02.2016 02:00 10,6 C 78 % 1023,6 hPa 0,0 l/m 21,4 km/h SW 6,9 C 3,6 C 11,9 km/h
02.02.2016 03:00 10,6 C 78 % 1023,2 hPa 0,0 l/m 21,4 km/h W-NW 6,9 C 3,6 C 11,9 km/h
02.02.2016 04:00 10,7 C 77 % 1022,7 hPa 0,0 l/m 20,1 km/h W-NW 6,8 C 4,2 C 11,2 km/h
02.02.2016 05:00 10,6 C 78 % 1022,2 hPa 0,0 l/m 13,6 km/h SW 6,9 C 6,5 C 7,6 km/h
02.02.2016 06:00 10,3 C 79 % 1021,8 hPa 0,0 l/m 20,7 km/h W-SW 6,8 C 3,5 C 11,5 km/h
02.02.2016 07:00 10,3 C 80 % 1021,5 hPa 0,0 l/m 18,1 km/h W 7,0 C 4,3 C 10,1 km/h
02.02.2016 08:00 10,7 C 80 % 1021,3 hPa 0,0 l/m 18,8 km/h S-SW 7,4 C 4,6 C 10,4 km/h
02.02.2016 09:00 11,4 C 78 % 1020,9 hPa 0,0 l/m 23,3 km/h S 7,7 C 4,2 C 13,0 km/h
02.02.2016 10:00 11,6 C 75 % 1020,8 hPa 0,0 l/m 31,1 km/h SW 7,3 C 2,7 C 17,3 km/h
02.02.2016 11:00 13,3 C 72 % 1020,5 hPa 0,0 l/m 25,3 km/h W-NW 8,4 C 6,2 C 14,0 km/h
02.02.2016 12:00 12,5 C 70 % 1019,9 hPa 0,0 l/m 28,5 km/h W-SW 7,2 C 4,5 C 15,8 km/h
02.02.2016 13:00 12,8 C 71 % 1019,0 hPa 0,0 l/m 20,1 km/h W-SW 7,7 C 6,9 C 11,2 km/h
02.02.2016 14:00 12,4 C 69 % 1018,0 hPa 0,0 l/m 15,6 km/h W-SW 6,9 C 7,8 C 8,6 km/h
02.02.2016 15:00 11,6 C 71 % 1018,2 hPa 0,0 l/m 17,5 km/h S-SW 6,5 C 6,2 C 9,7 km/h
02.02.2016 16:00 10,9 C 75 % 1018,4 hPa 0,0 l/m 13,6 km/h W-SW 6,6 C 6,8 C 7,6 km/h
02.02.2016 17:00 10,9 C 75 % 1018,3 hPa 0,0 l/m 20,7 km/h W-SW 6,6 C 4,2 C 11,5 km/h
02.02.2016 18:00 10,9 C 74 % 1018,4 hPa 0,0 l/m 39,5 km/h SW 6,5 C 0,3 C 22,0 km/h
02.02.2016 19:00 10,7 C 75 % 1018,7 hPa 0,0 l/m 22,0 km/h W-SW 6,5 C 3,6 C 12,2 km/h
02.02.2016 20:00 10,6 C 77 % 1019,0 hPa 0,0 l/m 25,3 km/h W-SW 6,7 C 2,6 C 14,0 km/h
02.02.2016 21:00 10,7 C 75 % 1018,5 hPa 0,0 l/m 24,6 km/h W-SW 6,5 C 2,9 C 13,7 km/h
02.02.2016 22:00 10,8 C 74 % 1018,3 hPa 0,0 l/m 27,9 km/h W 6,4 C 2,2 C 15,5 km/h
02.02.2016 23:00 10,6 C 75 % 1018,6 hPa 0,0 l/m 18,8 km/h N-NO 6,4 C 4,5 C 10,4 km/h
03.02.2016 00:00 8,1 C 81 % 1019,5 hPa 0,4 l/m 0,0 km/h N-NO 5,0 C 8,1 C 0,0 km/h
03.02.2016 01:00 6,1 C 86 % 1019,5 hPa 1,2 l/m 0,0 km/h O-SO 3,9 C 6,1 C 0,0 km/h
03.02.2016 02:00 5,6 C 87 % 1018,9 hPa 0,4 l/m 1,3 km/h SO 3,6 C 5,6 C 0,7 km/h
03.02.2016 03:00 5,5 C 88 % 1018,0 hPa 0,4 l/m 0,0 km/h SO 3,7 C 5,5 C 0,0 km/h
03.02.2016 04:00 5,3 C 88 % 1017,4 hPa 0,4 l/m 21,4 km/h S-SW 3,5 C -3,3 C 11,9 km/h
03.02.2016 05:00 4,9 C 87 % 1016,8 hPa 0,4 l/m 7,8 km/h SO 2,9 C 3,7 C 4,3 km/h
03.02.2016 06:00 4,3 C 87 % 1016,5 hPa 0,0 l/m 0,0 km/h SO 2,3 C 4,3 C 0,0 km/h
03.02.2016 07:00 4,1 C 87 % 1016,8 hPa 0,0 l/m 0,0 km/h SO 2,1 C 4,1 C 0,0 km/h
03.02.2016 08:00 4,2 C 88 % 1017,0 hPa 0,0 l/m 0,0 km/h W 2,4 C 4,2 C 0,0 km/h
03.02.2016 09:00 5,0 C 88 % 1017,4 hPa 0,4 l/m 0,0 km/h W-SW 3,2 C 5,0 C 0,0 km/h
03.02.2016 10:00 5,0 C 88 % 1017,8 hPa 0,0 l/m 7,1 km/h W 3,2 C 4,4 C 4,0 km/h
03.02.2016 11:00 5,6 C 88 % 1017,8 hPa 0,4 l/m 10,4 km/h W-SW 3,8 C 2,5 C 5,8 km/h
03.02.2016 12:00 6,2 C 88 % 1017,7 hPa 0,0 l/m 15,6 km/h S-SW 4,4 C 0,2 C 8,6 km/h
03.02.2016 13:00 6,9 C 86 % 1017,5 hPa 0,0 l/m 0,0 km/h N 4,7 C 6,9 C 0,0 km/h
03.02.2016 14:00 6,1 C 84 % 1018,0 hPa 0,0 l/m 4,5 km/h N 3,6 C 6,1 C 2,5 km/h
03.02.2016 15:00 5,0 C 86 % 1019,4 hPa 0,4 l/m 0,0 km/h W 2,9 C 5,0 C 0,0 km/h
03.02.2016 16:00 6,3 C 84 % 1020,3 hPa 0,0 l/m 0,0 km/h W-NW 3,8 C 6,3 C 0,0 km/h
03.02.2016 17:00 3,1 C 85 % 1021,2 hPa 0,0 l/m 0,0 km/h W-NW 0,8 C 3,1 C 0,0 km/h
03.02.2016 18:00 1,3 C 87 % 1022,2 hPa 0,0 l/m 0,0 km/h S-SO -0,6 C 1,3 C 0,0 km/h
03.02.2016 19:00 1,3 C 88 % 1022,8 hPa 0,0 l/m 0,0 km/h N-NO -0,5 C 1,3 C 0,0 km/h
03.02.2016 20:00 2,4 C 88 % 1024,1 hPa 0,0 l/m 0,0 km/h N 0,6 C 2,4 C 0,0 km/h
03.02.2016 21:00 2,7 C 89 % 1025,3 hPa 0,0 l/m 0,0 km/h W 1,1 C 2,7 C 0,0 km/h
03.02.2016 22:00 2,3 C 88 % 1025,5 hPa 0,4 l/m 0,6 km/h W-SW 0,5 C 2,3 C 0,4 km/h
03.02.2016 23:00 2,1 C 88 % 1026,1 hPa 0,0 l/m 0,0 km/h W 0,3 C 2,1 C 0,0 km/h
04.02.2016 00:00 2,3 C 88 % 1026,4 hPa 0,0 l/m 0,0 km/h W 0,5 C 2,3 C 0,0 km/h
04.02.2016 01:00 2,5 C 88 % 1026,7 hPa 0,0 l/m 0,0 km/h W-NW 0,7 C 2,5 C 0,0 km/h
04.02.2016 02:00 2,6 C 88 % 1027,2 hPa 0,0 l/m 0,0 km/h W-NW 0,8 C 2,6 C 0,0 km/h
04.02.2016 03:00 2,4 C 88 % 1027,0 hPa 0,0 l/m 0,0 km/h N 0,6 C 2,4 C 0,0 km/h
04.02.2016 04:00 2,3 C 88 % 1027,0 hPa 0,0 l/m 1,9 km/h W 0,5 C 2,3 C 1,1 km/h
04.02.2016 05:00 3,2 C 88 % 1026,8 hPa 0,0 l/m 7,1 km/h SW 1,4 C 2,5 C 4,0 km/h
04.02.2016 06:00 3,3 C 88 % 1027,1 hPa 0,0 l/m 0,0 km/h W 1,5 C 3,3 C 0,0 km/h
04.02.2016 07:00 3,3 C 88 % 1027,2 hPa 0,0 l/m 10,4 km/h W-NW 1,5 C -0,1 C 5,8 km/h
04.02.2016 08:00 3,6 C 88 % 1027,7 hPa 0,0 l/m 22,0 km/h W 1,8 C -5,8 C 12,2 km/h
04.02.2016 09:00 4,1 C 87 % 1027,7 hPa 0,0 l/m 24,0 km/h SW 2,1 C -5,8 C 13,3 km/h
04.02.2016 10:00 4,9 C 84 % 1027,9 hPa 0,0 l/m 38,9 km/h W-SW 2,4 C -8,5 C 21,6 km/h
04.02.2016 11:00 5,4 C 83 % 1027,3 hPa 0,0 l/m 24,0 km/h W 2,7 C -4,1 C 13,3 km/h
04.02.2016 12:00 5,4 C 81 % 1025,8 hPa 0,0 l/m 20,1 km/h W-SW 2,4 C -2,7 C 11,2 km/h
04.02.2016 13:00 4,3 C 85 % 1024,1 hPa 0,4 l/m 22,0 km/h W 2,0 C -4,9 C 12,2 km/h
04.02.2016 14:00 4,5 C 84 % 1023,3 hPa 0,0 l/m 35,6 km/h W-NW 2,0 C -8,4 C 19,8 km/h
04.02.2016 15:00 4,2 C 85 % 1023,5 hPa 0,0 l/m 20,1 km/h SW 1,9 C -4,2 C 11,2 km/h
04.02.2016 16:00 3,9 C 85 % 1023,0 hPa 0,0 l/m 25,3 km/h W 1,6 C -6,5 C 14,0 km/h
04.02.2016 17:00 4,3 C 85 % 1023,3 hPa 0,0 l/m 5,8 km/h W-SW 2,0 C 4,3 C 3,2 km/h
04.02.2016 18:00 4,2 C 88 % 1023,3 hPa 0,0 l/m 24,0 km/h W 2,4 C -5,7 C 13,3 km/h
04.02.2016 19:00 4,6 C 88 % 1023,6 hPa 0,0 l/m 24,0 km/h W-SW 2,8 C -5,2 C 13,3 km/h
04.02.2016 20:00 5,1 C 87 % 1023,8 hPa 0,0 l/m 20,1 km/h W-NW 3,1 C -3,1 C 11,2 km/h
04.02.2016 21:00 4,9 C 88 % 1024,1 hPa 0,4 l/m 5,8 km/h W 3,1 C 4,9 C 3,2 km/h
04.02.2016 22:00 5,4 C 88 % 1024,1 hPa 0,4 l/m 3,9 km/h W-NW 3,6 C 5,4 C 2,2 km/h
04.02.2016 23:00 5,4 C 88 % 1024,5 hPa 0,0 l/m 19,4 km/h W 3,6 C -2,4 C 10,8 km/h
05.02.2016 00:00 5,6 C 88 % 1025,1 hPa 0,0 l/m 0,0 km/h S-SW 3,8 C 5,6 C 0,0 km/h
05.02.2016 01:00 5,5 C 88 % 1025,5 hPa 0,4 l/m 0,0 km/h S-SO 3,7 C 5,5 C 0,0 km/h
05.02.2016 02:00 5,3 C 88 % 1025,9 hPa 1,2 l/m 0,0 km/h NO 3,5 C 5,3 C 0,0 km/h
05.02.2016 03:00 5,2 C 87 % 1026,2 hPa 0,0 l/m 0,0 km/h NO 3,2 C 5,2 C 0,0 km/h
05.02.2016 04:00 4,8 C 88 % 1026,6 hPa 0,0 l/m 0,0 km/h NO 3,0 C 4,8 C 0,0 km/h
05.02.2016 05:00 4,8 C 87 % 1026,5 hPa 0,0 l/m 0,0 km/h NO 2,8 C 4,8 C 0,0 km/h
05.02.2016 06:00 4,8 C 87 % 1026,6 hPa 0,0 l/m 0,0 km/h SO 2,8 C 4,8 C 0,0 km/h
05.02.2016 07:00 5,0 C 86 % 1026,7 hPa 0,0 l/m 0,0 km/h SO 2,9 C 5,0 C 0,0 km/h
05.02.2016 08:00 5,2 C 85 % 1027,1 hPa 0,0 l/m 0,0 km/h SO 2,9 C 5,2 C 0,0 km/h
05.02.2016 09:00 6,1 C 84 % 1026,6 hPa 0,0 l/m 0,0 km/h SO 3,6 C 6,1 C 0,0 km/h
05.02.2016 10:00 7,8 C 86 % 1026,6 hPa 0,0 l/m 15,6 km/h SO 5,6 C 2,2 C 8,6 km/h
05.02.2016 11:00 14,6 C 81 % 1026,2 hPa 0,0 l/m 0,0 km/h W 11,4 C 14,6 C 0,0 km/h
05.02.2016 12:00 14,4 C 69 % 1025,3 hPa 0,0 l/m 0,0 km/h W-NW 8,8 C 14,4 C 0,0 km/h
05.02.2016 13:00 12,6 C 75 % 1024,6 hPa 0,0 l/m 0,0 km/h W-NW 8,3 C 12,6 C 0,0 km/h
05.02.2016 14:00 14,2 C 68 % 1023,9 hPa 0,0 l/m 1,9 km/h W 8,4 C 14,2 C 1,1 km/h
05.02.2016 15:00 11,9 C 74 % 1023,5 hPa 0,0 l/m 0,0 km/h S-SO 7,4 C 11,9 C 0,0 km/h
05.02.2016 16:00 16,6 C 59 % 1022,9 hPa 0,0 l/m 0,0 km/h SO 8,6 C 16,6 C 0,0 km/h
05.02.2016 17:00 9,4 C 76 % 1022,2 hPa 0,0 l/m 3,2 km/h SO 5,4 C 9,4 C 1,8 km/h
05.02.2016 18:00 6,1 C 84 % 1022,0 hPa 0,0 l/m 0,0 km/h SO 3,6 C 6,1 C 0,0 km/h
05.02.2016 19:00 4,9 C 86 % 1021,8 hPa 0,0 l/m 0,0 km/h SO 2,8 C 4,9 C 0,0 km/h
05.02.2016 20:00 3,9 C 87 % 1021,1 hPa 0,0 l/m 0,0 km/h SO 1,9 C 3,9 C 0,0 km/h
05.02.2016 21:00 3,1 C 88 % 1020,9 hPa 0,0 l/m 0,0 km/h SO 1,3 C 3,1 C 0,0 km/h
05.02.2016 22:00 3,2 C 88 % 1020,5 hPa 0,0 l/m 0,0 km/h SO 1,4 C 3,2 C 0,0 km/h
05.02.2016 23:00 2,5 C 88 % 1019,9 hPa 0,0 l/m 0,0 km/h O-SO 0,7 C 2,5 C 0,0 km/h
06.02.2016 00:00 1,9 C 88 % 1019,8 hPa 0,0 l/m 0,0 km/h O 0,1 C 1,9 C 0,0 km/h
06.02.2016 01:00 1,3 C 88 % 1019,2 hPa 0,0 l/m 0,0 km/h SO -0,5 C 1,3 C 0,0 km/h
06.02.2016 02:00 1,4 C 88 % 1018,6 hPa 0,0 l/m 0,0 km/h SO -0,4 C 1,4 C 0,0 km/h
06.02.2016 03:00 1,9 C 87 % 1017,7 hPa 0,0 l/m 19,4 km/h S-SO -0,0 C -6,9 C 10,8 km/h
06.02.2016 04:00 1,8 C 86 % 1017,4 hPa 0,0 l/m 0,0 km/h SO -0,3 C 1,8 C 0,0 km/h
06.02.2016 05:00 2,1 C 86 % 1017,1 hPa 0,0 l/m 2,6 km/h O-NO 0,0 C 2,1 C 1,4 km/h
06.02.2016 06:00 2,2 C 86 % 1017,0 hPa 0,0 l/m 0,0 km/h O-SO 0,1 C 2,2 C 0,0 km/h
06.02.2016 07:00 2,6 C 85 % 1016,8 hPa 0,0 l/m 0,0 km/h O-SO 0,3 C 2,6 C 0,0 km/h
06.02.2016 08:00 3,0 C 85 % 1017,3 hPa 0,0 l/m 0,0 km/h O-SO 0,7 C 3,0 C 0,0 km/h
06.02.2016 09:00 8,8 C 88 % 1017,0 hPa 0,0 l/m 0,0 km/h SO 6,9 C 8,8 C 0,0 km/h
06.02.2016 10:00 11,7 C 81 % 1016,6 hPa 0,0 l/m 7,8 km/h W 8,5 C 10,8 C 4,3 km/h
06.02.2016 11:00 16,9 C 56 % 1016,2 hPa 0,0 l/m 0,0 km/h W 8,1 C 16,9 C 0,0 km/h
06.02.2016 12:00 17,3 C 52 % 1014,6 hPa 0,0 l/m 9,1 km/h SW 7,3 C 16,0 C 5,0 km/h
06.02.2016 13:00 18,1 C 49 % 1013,3 hPa 0,0 l/m 13,6 km/h W-SW 7,2 C 15,3 C 7,6 km/h
06.02.2016 14:00 18,7 C 44 % 1012,0 hPa 0,0 l/m 13,0 km/h W 6,2 C 16,2 C 7,2 km/h
06.02.2016 15:00 17,4 C 47 % 1011,0 hPa 0,0 l/m 0,0 km/h W 6,0 C 17,4 C 0,0 km/h
06.02.2016 16:00 14,8 C 57 % 1009,9 hPa 0,0 l/m 0,0 km/h W-NW 6,4 C 14,8 C 0,0 km/h
06.02.2016 17:00 9,8 C 68 % 1008,8 hPa 0,0 l/m 0,0 km/h SO 4,2 C 9,8 C 0,0 km/h
06.02.2016 18:00 7,1 C 76 % 1008,4 hPa 0,0 l/m 0,0 km/h SO 3,2 C 7,1 C 0,0 km/h
06.02.2016 19:00 5,3 C 80 % 1007,7 hPa 0,0 l/m 0,0 km/h O-SO 2,1 C 5,3 C 0,0 km/h
06.02.2016 20:00 4,4 C 83 % 1007,0 hPa 0,0 l/m 0,0 km/h SO 1,8 C 4,4 C 0,0 km/h
06.02.2016 21:00 4,8 C 84 % 1006,2 hPa 0,0 l/m 0,0 km/h N-NO 2,3 C 4,8 C 0,0 km/h
06.02.2016 22:00 4,9 C 83 % 1005,4 hPa 0,0 l/m 0,0 km/h O 2,3 C 4,9 C 0,0 km/h
06.02.2016 23:00 4,9 C 82 % 1005,1 hPa 0,0 l/m 0,0 km/h O 2,1 C 4,9 C 0,0 km/h
07.02.2016 00:00 4,8 C 81 % 1004,7 hPa 0,0 l/m 9,7 km/h O 1,8 C 2,1 C 5,4 km/h
07.02.2016 01:00 4,2 C 81 % 1004,1 hPa 0,0 l/m 0,0 km/h O 1,2 C 4,2 C 0,0 km/h
07.02.2016 02:00 4,2 C 81 % 1003,4 hPa 0,0 l/m 0,0 km/h SO 1,2 C 4,2 C 0,0 km/h
07.02.2016 03:00 4,2 C 82 % 1002,3 hPa 0,0 l/m 0,0 km/h SO 1,4 C 4,2 C 0,0 km/h
07.02.2016 04:00 4,4 C 82 % 1002,0 hPa 0,0 l/m 0,0 km/h O 1,6 C 4,4 C 0,0 km/h
07.02.2016 05:00 4,9 C 80 % 1001,1 hPa 0,0 l/m 0,0 km/h O 1,7 C 4,9 C 0,0 km/h
07.02.2016 06:00 5,4 C 79 % 1001,1 hPa 0,0 l/m 0,0 km/h O-SO 2,1 C 5,4 C 0,0 km/h
07.02.2016 07:00 5,6 C 79 % 1000,5 hPa 0,0 l/m 8,4 km/h NO 2,3 C 3,9 C 4,7 km/h
07.02.2016 08:00 5,9 C 78 % 1000,7 hPa 0,0 l/m 0,0 km/h W 2,4 C 5,9 C 0,0 km/h
07.02.2016 09:00 5,6 C 81 % 1001,4 hPa 0,0 l/m 0,0 km/h W 2,6 C 5,6 C 0,0 km/h
07.02.2016 10:00 7,2 C 79 % 1002,8 hPa 0,0 l/m 0,0 km/h NW 3,8 C 7,2 C 0,0 km/h
07.02.2016 11:00 9,5 C 76 % 1003,5 hPa 0,0 l/m 0,0 km/h W 5,5 C 9,5 C 0,0 km/h
07.02.2016 12:00 7,9 C 86 % 1004,5 hPa 0,4 l/m 19,4 km/h W-NW 5,7 C 0,8 C 10,8 km/h
07.02.2016 13:00 6,7 C 87 % 1006,0 hPa 2,9 l/m 0,0 km/h W 4,7 C 6,7 C 0,0 km/h
07.02.2016 14:00 6,4 C 88 % 1006,3 hPa 0,8 l/m 11,0 km/h W-SW 4,6 C 3,0 C 6,1 km/h
07.02.2016 15:00 6,7 C 87 % 1007,0 hPa 0,0 l/m 21,4 km/h W-SW 4,7 C -1,5 C 11,9 km/h
07.02.2016 16:00 6,8 C 85 % 1007,7 hPa 0,0 l/m 22,0 km/h W-SW 4,5 C -1,6 C 12,2 km/h
07.02.2016 17:00 6,4 C 82 % 1008,4 hPa 0,0 l/m 23,3 km/h W-SW 3,6 C -2,5 C 13,0 km/h
07.02.2016 18:00 6,5 C 81 % 1009,4 hPa 0,0 l/m 9,7 km/h W-SW 3,5 C 3,9 C 5,4 km/h
07.02.2016 19:00 6,3 C 81 % 1009,8 hPa 0,0 l/m 20,1 km/h S-SW 3,3 C -1,5 C 11,2 km/h
07.02.2016 20:00 6,4 C 80 % 1010,1 hPa 0,0 l/m 9,7 km/h S-SW 3,2 C 3,8 C 5,4 km/h
07.02.2016 21:00 6,5 C 77 % 1010,1 hPa 0,0 l/m 16,8 km/h W 2,8 C 0,1 C 9,4 km/h
07.02.2016 22:00 6,7 C 74 % 1010,0 hPa 0,0 l/m 13,0 km/h W 2,4 C 2,2 C 7,2 km/h
07.02.2016 23:00 6,9 C 72 % 1009,7 hPa 0,0 l/m 12,3 km/h W 2,2 C 2,8 C 6,8 km/h
Min-Datum _ 03.02.16 06.02.16 07.02.16 - 03.02.16 - 03.02.16 04.02.16 03.02.16
_ Min-Zeit 18:42 14:42 07:42 - 00:42 - 18:42 10:42 00:42
Minimum _ 1,3 C 44 % 1000,5 hPa - 0,0 km/h - -0,6 C -8,5 C 0,0 km/h
Max-Datum _ 06.02.16 03.02.16 04.02.16 07.02.16 01.02.16 - 05.02.16 06.02.16 01.02.16
_ Max-Zeit 14:42 21:42 10:42 13:42 09:42 - 11:42 15:42 09:42
Maximum _ 18,7 C 89 % 1027,9 hPa 2,9 l/m 43,4 km/h
W-SW
- 11,4 C 17,4 C 24,1 km/h
W-SW
Durchschnitt _ 7,6 C 81 % 1018,7 hPa #12,0 l/m 11,2 km/h W 4,4 C 4,1 C 6,2 km/h
www.sexauwetter.de